sensor_id;sensor_type;location;lat;lon;timestamp;P1;durP1;ratioP1;P2;durP2;ratioP2
16391;SDS011;8305;-33.882;151.134;2023-01-01T00:01:25;9.07;;;1.42;;
16391;SDS011;8305;-33.882;151.134;2023-01-01T00:03:57;8.85;;;1.55;;
16391;SDS011;8305;-33.882;151.134;2023-01-01T00:06:28;5.65;;;0.98;;
16391;SDS011;8305;-33.882;151.134;2023-01-01T00:08:58;5.45;;;1.00;;
16391;SDS011;8305;-33.882;151.134;2023-01-01T00:11:45;8.77;;;1.35;;
16391;SDS011;8305;-33.882;151.134;2023-01-01T00:14:16;5.13;;;1.20;;
16391;SDS011;8305;-33.882;151.134;2023-01-01T00:16:48;9.45;;;1.30;;
16391;SDS011;8305;-33.882;151.134;2023-01-01T00:19:21;6.90;;;1.35;;
16391;SDS011;8305;-33.882;151.134;2023-01-01T00:21:52;8.65;;;1.27;;
16391;SDS011;8305;-33.882;151.134;2023-01-01T00:24:23;8.15;;;1.30;;
16391;SDS011;8305;-33.882;151.134;2023-01-01T00:26:54;7.97;;;1.50;;
16391;SDS011;8305;-33.882;151.134;2023-01-01T00:29:25;9.05;;;1.17;;
16391;SDS011;8305;-33.882;151.134;2023-01-01T00:31:57;8.02;;;1.30;;
16391;SDS011;8305;-33.882;151.134;2023-01-01T00:34:28;8.38;;;1.40;;
16391;SDS011;8305;-33.882;151.134;2023-01-01T00:36:59;7.60;;;1.27;;
16391;SDS011;8305;-33.882;151.134;2023-01-01T00:39:33;4.30;;;0.85;;
16391;SDS011;8305;-33.882;151.134;2023-01-01T00:42:04;5.60;;;1.00;;
16391;SDS011;8305;-33.882;151.134;2023-01-01T00:44:35;6.40;;;1.08;;
16391;SDS011;8305;-33.882;151.134;2023-01-01T00:47:08;5.55;;;1.40;;
16391;SDS011;8305;-33.882;151.134;2023-01-01T00:49:38;5.32;;;1.10;;
16391;SDS011;8305;-33.882;151.134;2023-01-01T00:52:09;6.00;;;1.25;;
16391;SDS011;8305;-33.882;151.134;2023-01-01T00:54:40;7.70;;;1.30;;
16391;SDS011;8305;-33.882;151.134;2023-01-01T00:57:12;6.90;;;1.25;;
16391;SDS011;8305;-33.882;151.134;2023-01-01T00:59:43;4.93;;;1.00;;
16391;SDS011;8305;-33.882;151.134;2023-01-01T01:02:16;7.47;;;1.35;;
16391;SDS011;8305;-33.882;151.134;2023-01-01T01:04:47;7.18;;;1.33;;
16391;SDS011;8305;-33.882;151.134;2023-01-01T01:07:17;8.40;;;1.38;;
16391;SDS011;8305;-33.882;151.134;2023-01-01T01:09:48;4.70;;;1.15;;
16391;SDS011;8305;-33.882;151.134;2023-01-01T01:12:19;5.78;;;1.10;;
16391;SDS011;8305;-33.882;151.134;2023-01-01T01:14:50;9.20;;;1.23;;
16391;SDS011;8305;-33.882;151.134;2023-01-01T01:17:23;8.02;;;1.52;;
16391;SDS011;8305;-33.882;151.134;2023-01-01T01:19:54;4.80;;;0.90;;
16391;SDS011;8305;-33.882;151.134;2023-01-01T01:22:25;5.07;;;1.20;;
16391;SDS011;8305;-33.882;151.134;2023-01-01T01:24:56;5.55;;;1.17;;
16391;SDS011;8305;-33.882;151.134;2023-01-01T01:27:27;5.03;;;1.20;;
16391;SDS011;8305;-33.882;151.134;2023-01-01T01:29:57;6.57;;;1.00;;
16391;SDS011;8305;-33.882;151.134;2023-01-01T01:32:30;7.88;;;1.08;;
16391;SDS011;8305;-33.882;151.134;2023-01-01T01:35:01;5.80;;;1.10;;
16391;SDS011;8305;-33.882;151.134;2023-01-01T01:37:32;5.45;;;1.42;;
16391;SDS011;8305;-33.882;151.134;2023-01-01T01:40:03;5.70;;;1.10;;
16391;SDS011;8305;-33.882;151.134;2023-01-01T01:42:34;6.35;;;1.20;;
16391;SDS011;8305;-33.882;151.134;2023-01-01T01:45:05;7.00;;;1.70;;
16391;SDS011;8305;-33.882;151.134;2023-01-01T01:47:41;5.40;;;0.98;;
16391;SDS011;8305;-33.882;151.134;2023-01-01T01:50:20;8.18;;;1.40;;
16391;SDS011;8305;-33.882;151.134;2023-01-01T01:52:57;6.53;;;1.15;;
16391;SDS011;8305;-33.882;151.134;2023-01-01T01:55:32;9.23;;;1.40;;
16391;SDS011;8305;-33.882;151.134;2023-01-01T01:58:04;4.10;;;1.23;;
16391;SDS011;8305;-33.882;151.134;2023-01-01T02:00:37;8.18;;;1.38;;
16391;SDS011;8305;-33.882;151.134;2023-01-01T02:03:10;3.38;;;1.00;;
16391;SDS011;8305;-33.882;151.134;2023-01-01T02:05:42;7.18;;;1.40;;
16391;SDS011;8305;-33.882;151.134;2023-01-01T02:08:14;4.93;;;0.98;;
16391;SDS011;8305;-33.882;151.134;2023-01-01T02:10:45;7.60;;;1.20;;
16391;SDS011;8305;-33.882;151.134;2023-01-01T02:13:16;8.05;;;1.80;;
16391;SDS011;8305;-33.882;151.134;2023-01-01T02:15:52;7.45;;;1.23;;
16391;SDS011;8305;-33.882;151.134;2023-01-01T02:18:31;6.75;;;1.13;;
16391;SDS011;8305;-33.882;151.134;2023-01-01T02:21:07;7.72;;;1.45;;
16391;SDS011;8305;-33.882;151.134;2023-01-01T02:23:56;7.72;;;1.40;;
16391;SDS011;8305;-33.882;151.134;2023-01-01T02:26:46;7.03;;;1.60;;
16391;SDS011;8305;-33.882;151.134;2023-01-01T02:29:33;6.72;;;1.27;;
16391;SDS011;8305;-33.882;151.134;2023-01-01T02:32:09;8.35;;;1.35;;
16391;SDS011;8305;-33.882;151.134;2023-01-01T02:34:43;7.53;;;1.30;;
16391;SDS011;8305;-33.882;151.134;2023-01-01T02:37:17;6.80;;;1.70;;
16391;SDS011;8305;-33.882;151.134;2023-01-01T02:39:50;5.75;;;1.48;;
16391;SDS011;8305;-33.882;151.134;2023-01-01T02:42:25;6.68;;;1.40;;
16391;SDS011;8305;-33.882;151.134;2023-01-01T02:44:59;6.90;;;1.10;;
16391;SDS011;8305;-33.882;151.134;2023-01-01T02:47:30;7.15;;;1.30;;
16391;SDS011;8305;-33.882;151.134;2023-01-01T02:50:02;7.88;;;1.30;;
16391;SDS011;8305;-33.882;151.134;2023-01-01T02:52:48;10.68;;;1.40;;
16391;SDS011;8305;-33.882;151.134;2023-01-01T02:55:47;7.93;;;1.20;;
16391;SDS011;8305;-33.882;151.134;2023-01-01T02:58:28;6.35;;;1.27;;
16391;SDS011;8305;-33.882;151.134;2023-01-01T03:01:22;6.90;;;1.38;;
16391;SDS011;8305;-33.882;151.134;2023-01-01T03:04:03;5.10;;;1.30;;
16391;SDS011;8305;-33.882;151.134;2023-01-01T03:06:39;9.98;;;1.42;;
16391;SDS011;8305;-33.882;151.134;2023-01-01T03:09:20;7.13;;;1.27;;
16391;SDS011;8305;-33.882;151.134;2023-01-01T03:11:56;7.07;;;1.20;;
16391;SDS011;8305;-33.882;151.134;2023-01-01T03:14:30;6.30;;;1.30;;
16391;SDS011;8305;-33.882;151.134;2023-01-01T03:17:12;6.05;;;1.00;;
16391;SDS011;8305;-33.882;151.134;2023-01-01T03:19:47;5.13;;;1.05;;
16391;SDS011;8305;-33.882;151.134;2023-01-01T03:22:19;9.07;;;1.65;;
16391;SDS011;8305;-33.882;151.134;2023-01-01T03:24:55;8.43;;;1.20;;
16391;SDS011;8305;-33.882;151.134;2023-01-01T03:27:30;8.45;;;1.45;;
16391;SDS011;8305;-33.882;151.134;2023-01-01T03:30:06;5.88;;;1.38;;
16391;SDS011;8305;-33.882;151.134;2023-01-01T03:32:41;5.93;;;1.20;;
16391;SDS011;8305;-33.882;151.134;2023-01-01T03:35:33;5.47;;;1.23;;
16391;SDS011;8305;-33.882;151.134;2023-01-01T03:38:06;7.72;;;1.67;;
16391;SDS011;8305;-33.882;151.134;2023-01-01T03:40:41;6.38;;;1.10;;
16391;SDS011;8305;-33.882;151.134;2023-01-01T03:43:17;7.15;;;1.25;;
16391;SDS011;8305;-33.882;151.134;2023-01-01T03:45:53;9.95;;;1.40;;
16391;SDS011;8305;-33.882;151.134;2023-01-01T03:48:29;6.40;;;1.23;;
16391;SDS011;8305;-33.882;151.134;2023-01-01T03:51:21;7.32;;;1.50;;
16391;SDS011;8305;-33.882;151.134;2023-01-01T03:53:55;4.22;;;1.10;;
16391;SDS011;8305;-33.882;151.134;2023-01-01T03:56:32;6.18;;;1.63;;
16391;SDS011;8305;-33.882;151.134;2023-01-01T03:59:09;11.05;;;1.73;;
16391;SDS011;8305;-33.882;151.134;2023-01-01T04:01:44;6.97;;;1.50;;
16391;SDS011;8305;-33.882;151.134;2023-01-01T04:04:19;8.07;;;1.50;;
16391;SDS011;8305;-33.882;151.134;2023-01-01T04:06:51;9.48;;;1.58;;
16391;SDS011;8305;-33.882;151.134;2023-01-01T04:09:22;10.55;;;1.70;;
16391;SDS011;8305;-33.882;151.134;2023-01-01T04:11:58;11.45;;;1.58;;
16391;SDS011;8305;-33.882;151.134;2023-01-01T04:14:30;9.38;;;1.75;;
16391;SDS011;8305;-33.882;151.134;2023-01-01T04:17:02;6.35;;;1.42;;
16391;SDS011;8305;-33.882;151.134;2023-01-01T04:19:36;7.40;;;1.50;;
16391;SDS011;8305;-33.882;151.134;2023-01-01T04:22:07;9.15;;;1.77;;
16391;SDS011;8305;-33.882;151.134;2023-01-01T04:24:38;8.52;;;1.50;;
16391;SDS011;8305;-33.882;151.134;2023-01-01T04:27:08;5.70;;;1.40;;
16391;SDS011;8305;-33.882;151.134;2023-01-01T04:29:39;5.72;;;1.40;;
16391;SDS011;8305;-33.882;151.134;2023-01-01T04:32:10;8.15;;;1.50;;
16391;SDS011;8305;-33.882;151.134;2023-01-01T04:34:43;8.30;;;1.48;;
16391;SDS011;8305;-33.882;151.134;2023-01-01T04:37:13;7.05;;;1.33;;
16391;SDS011;8305;-33.882;151.134;2023-01-01T04:39:44;7.78;;;1.73;;
16391;SDS011;8305;-33.882;151.134;2023-01-01T04:42:15;7.88;;;1.30;;
16391;SDS011;8305;-33.882;151.134;2023-01-01T04:44:46;8.82;;;1.50;;
16391;SDS011;8305;-33.882;151.134;2023-01-01T04:47:17;8.90;;;1.77;;
16391;SDS011;8305;-33.882;151.134;2023-01-01T04:49:49;7.75;;;1.48;;
16391;SDS011;8305;-33.882;151.134;2023-01-01T04:52:20;9.70;;;1.77;;
16391;SDS011;8305;-33.882;151.134;2023-01-01T04:54:51;8.63;;;1.50;;
16391;SDS011;8305;-33.882;151.134;2023-01-01T04:57:22;10.30;;;1.38;;
16391;SDS011;8305;-33.882;151.134;2023-01-01T04:59:52;7.35;;;1.58;;
16391;SDS011;8305;-33.882;151.134;2023-01-01T05:02:23;10.00;;;1.75;;
16391;SDS011;8305;-33.882;151.134;2023-01-01T05:04:56;8.85;;;1.55;;
16391;SDS011;8305;-33.882;151.134;2023-01-01T05:07:27;11.25;;;1.50;;
16391;SDS011;8305;-33.882;151.134;2023-01-01T05:09:57;7.70;;;1.35;;
16391;SDS011;8305;-33.882;151.134;2023-01-01T05:12:28;7.97;;;1.50;;
16391;SDS011;8305;-33.882;151.134;2023-01-01T05:14:59;5.13;;;1.30;;
16391;SDS011;8305;-33.882;151.134;2023-01-01T05:17:30;6.97;;;1.15;;
16391;SDS011;8305;-33.882;151.134;2023-01-01T05:20:03;8.95;;;1.55;;
16391;SDS011;8305;-33.882;151.134;2023-01-01T05:22:34;4.70;;;1.10;;
16391;SDS011;8305;-33.882;151.134;2023-01-01T05:25:05;7.65;;;1.40;;
16391;SDS011;8305;-33.882;151.134;2023-01-01T05:27:36;5.45;;;1.30;;
16391;SDS011;8305;-33.882;151.134;2023-01-01T05:30:07;9.23;;;1.45;;
16391;SDS011;8305;-33.882;151.134;2023-01-01T05:32:38;7.03;;;1.27;;
16391;SDS011;8305;-33.882;151.134;2023-01-01T05:35:11;8.80;;;1.52;;
16391;SDS011;8305;-33.882;151.134;2023-01-01T05:37:42;8.18;;;1.20;;
16391;SDS011;8305;-33.882;151.134;2023-01-01T05:40:12;9.65;;;1.10;;
16391;SDS011;8305;-33.882;151.134;2023-01-01T05:42:45;9.68;;;1.67;;
16391;SDS011;8305;-33.882;151.134;2023-01-01T05:45:16;7.47;;;1.52;;
16391;SDS011;8305;-33.882;151.134;2023-01-01T05:47:46;8.05;;;1.52;;
16391;SDS011;8305;-33.882;151.134;2023-01-01T05:50:19;7.18;;;1.45;;
16391;SDS011;8305;-33.882;151.134;2023-01-01T05:52:50;7.47;;;1.35;;
16391;SDS011;8305;-33.882;151.134;2023-01-01T05:55:21;9.05;;;1.55;;
16391;SDS011;8305;-33.882;151.134;2023-01-01T05:57:52;6.18;;;1.30;;
16391;SDS011;8305;-33.882;151.134;2023-01-01T06:00:23;6.80;;;1.20;;
16391;SDS011;8305;-33.882;151.134;2023-01-01T06:02:53;8.07;;;1.63;;
16391;SDS011;8305;-33.882;151.134;2023-01-01T06:05:26;9.50;;;1.55;;
16391;SDS011;8305;-33.882;151.134;2023-01-01T06:07:57;6.97;;;1.55;;
16391;SDS011;8305;-33.882;151.134;2023-01-01T06:10:28;9.55;;;1.85;;
16391;SDS011;8305;-33.882;151.134;2023-01-01T06:12:59;6.95;;;1.60;;
16391;SDS011;8305;-33.882;151.134;2023-01-01T06:15:29;10.40;;;1.75;;
16391;SDS011;8305;-33.882;151.134;2023-01-01T06:18:00;10.45;;;1.65;;
16391;SDS011;8305;-33.882;151.134;2023-01-01T06:20:33;8.82;;;1.52;;
16391;SDS011;8305;-33.882;151.134;2023-01-01T06:23:04;7.60;;;1.60;;
16391;SDS011;8305;-33.882;151.134;2023-01-01T06:25:34;6.00;;;1.33;;
16391;SDS011;8305;-33.882;151.134;2023-01-01T06:28:05;6.93;;;1.52;;
16391;SDS011;8305;-33.882;151.134;2023-01-01T06:30:36;6.13;;;1.73;;
16391;SDS011;8305;-33.882;151.134;2023-01-01T06:33:07;10.75;;;1.48;;
16391;SDS011;8305;-33.882;151.134;2023-01-01T06:35:39;9.00;;;1.52;;
16391;SDS011;8305;-33.882;151.134;2023-01-01T06:38:10;5.55;;;1.38;;
16391;SDS011;8305;-33.882;151.134;2023-01-01T06:40:41;10.82;;;2.30;;
16391;SDS011;8305;-33.882;151.134;2023-01-01T06:43:11;9.43;;;1.55;;
16391;SDS011;8305;-33.882;151.134;2023-01-01T06:45:42;10.05;;;1.45;;
16391;SDS011;8305;-33.882;151.134;2023-01-01T06:48:13;8.52;;;1.48;;
16391;SDS011;8305;-33.882;151.134;2023-01-01T06:50:45;8.40;;;1.40;;
16391;SDS011;8305;-33.882;151.134;2023-01-01T06:53:16;7.90;;;1.70;;
16391;SDS011;8305;-33.882;151.134;2023-01-01T06:55:47;7.85;;;1.50;;
16391;SDS011;8305;-33.882;151.134;2023-01-01T06:58:18;8.98;;;1.73;;
16391;SDS011;8305;-33.882;151.134;2023-01-01T07:00:49;7.70;;;1.45;;
16391;SDS011;8305;-33.882;151.134;2023-01-01T07:03:20;7.63;;;1.58;;
16391;SDS011;8305;-33.882;151.134;2023-01-01T07:05:52;6.60;;;1.60;;
16391;SDS011;8305;-33.882;151.134;2023-01-01T07:08:23;6.40;;;1.50;;
16391;SDS011;8305;-33.882;151.134;2023-01-01T07:10:54;7.15;;;1.45;;
16391;SDS011;8305;-33.882;151.134;2023-01-01T07:13:25;6.18;;;1.70;;
16391;SDS011;8305;-33.882;151.134;2023-01-01T07:15:56;9.10;;;2.28;;
16391;SDS011;8305;-33.882;151.134;2023-01-01T07:18:28;7.70;;;1.90;;
16391;SDS011;8305;-33.882;151.134;2023-01-01T07:21:00;10.05;;;2.00;;
16391;SDS011;8305;-33.882;151.134;2023-01-01T07:23:32;8.07;;;1.83;;
16391;SDS011;8305;-33.882;151.134;2023-01-01T07:26:03;10.07;;;1.77;;
16391;SDS011;8305;-33.882;151.134;2023-01-01T07:28:34;9.90;;;1.85;;
16391;SDS011;8305;-33.882;151.134;2023-01-01T07:31:05;11.00;;;2.00;;
16391;SDS011;8305;-33.882;151.134;2023-01-01T07:33:37;8.45;;;2.03;;
16391;SDS011;8305;-33.882;151.134;2023-01-01T07:36:10;11.77;;;2.15;;
16391;SDS011;8305;-33.882;151.134;2023-01-01T07:38:40;9.68;;;2.15;;
16391;SDS011;8305;-33.882;151.134;2023-01-01T07:41:11;12.18;;;2.30;;
16391;SDS011;8305;-33.882;151.134;2023-01-01T07:43:42;7.95;;;1.70;;
16391;SDS011;8305;-33.882;151.134;2023-01-01T07:46:13;7.45;;;1.85;;
16391;SDS011;8305;-33.882;151.134;2023-01-01T07:48:47;8.60;;;1.90;;
16391;SDS011;8305;-33.882;151.134;2023-01-01T07:51:20;7.55;;;1.75;;
16391;SDS011;8305;-33.882;151.134;2023-01-01T07:53:51;9.40;;;1.77;;
16391;SDS011;8305;-33.882;151.134;2023-01-01T07:56:22;8.25;;;1.88;;
16391;SDS011;8305;-33.882;151.134;2023-01-01T07:58:53;11.18;;;1.65;;
16391;SDS011;8305;-33.882;151.134;2023-01-01T08:01:24;8.98;;;1.95;;
16391;SDS011;8305;-33.882;151.134;2023-01-01T08:03:54;10.20;;;1.70;;
16391;SDS011;8305;-33.882;151.134;2023-01-01T08:06:27;9.95;;;1.95;;
16391;SDS011;8305;-33.882;151.134;2023-01-01T08:08:58;9.13;;;1.90;;
16391;SDS011;8305;-33.882;151.134;2023-01-01T08:11:28;5.65;;;1.65;;
16391;SDS011;8305;-33.882;151.134;2023-01-01T08:14:01;10.00;;;1.70;;
16391;SDS011;8305;-33.882;151.134;2023-01-01T08:16:31;6.43;;;1.80;;
16391;SDS011;8305;-33.882;151.134;2023-01-01T08:19:02;10.60;;;1.85;;
16391;SDS011;8305;-33.882;151.134;2023-01-01T08:21:35;7.85;;;1.70;;
16391;SDS011;8305;-33.882;151.134;2023-01-01T08:24:06;11.15;;;1.90;;
16391;SDS011;8305;-33.882;151.134;2023-01-01T08:26:37;9.48;;;1.73;;
16391;SDS011;8305;-33.882;151.134;2023-01-01T08:29:09;9.45;;;1.70;;
16391;SDS011;8305;-33.882;151.134;2023-01-01T08:31:40;7.35;;;1.90;;
16391;SDS011;8305;-33.882;151.134;2023-01-01T08:34:11;11.40;;;2.05;;
16391;SDS011;8305;-33.882;151.134;2023-01-01T08:36:44;8.35;;;1.90;;
16391;SDS011;8305;-33.882;151.134;2023-01-01T08:39:15;12.98;;;1.70;;
16391;SDS011;8305;-33.882;151.134;2023-01-01T08:41:46;8.30;;;1.88;;
16391;SDS011;8305;-33.882;151.134;2023-01-01T08:44:16;9.68;;;2.05;;
16391;SDS011;8305;-33.882;151.134;2023-01-01T08:46:47;6.20;;;1.90;;
16391;SDS011;8305;-33.882;151.134;2023-01-01T08:49:20;7.50;;;1.85;;
16391;SDS011;8305;-33.882;151.134;2023-01-01T08:51:52;11.40;;;2.33;;
16391;SDS011;8305;-33.882;151.134;2023-01-01T08:54:23;10.93;;;1.90;;
16391;SDS011;8305;-33.882;151.134;2023-01-01T08:56:54;5.07;;;1.60;;
16391;SDS011;8305;-33.882;151.134;2023-01-01T08:59:25;6.93;;;2.00;;
16391;SDS011;8305;-33.882;151.134;2023-01-01T09:01:55;11.68;;;2.05;;
16391;SDS011;8305;-33.882;151.134;2023-01-01T09:04:27;10.13;;;2.00;;
16391;SDS011;8305;-33.882;151.134;2023-01-01T09:06:59;12.07;;;2.42;;
16391;SDS011;8305;-33.882;151.134;2023-01-01T09:09:30;6.00;;;2.15;;
16391;SDS011;8305;-33.882;151.134;2023-01-01T09:12:01;9.77;;;2.20;;
16391;SDS011;8305;-33.882;151.134;2023-01-01T09:14:34;7.30;;;1.92;;
16391;SDS011;8305;-33.882;151.134;2023-01-01T09:17:05;10.80;;;2.00;;
16391;SDS011;8305;-33.882;151.134;2023-01-01T09:19:36;7.95;;;1.75;;
16391;SDS011;8305;-33.882;151.134;2023-01-01T09:22:09;14.38;;;1.98;;
16391;SDS011;8305;-33.882;151.134;2023-01-01T09:24:41;7.13;;;1.83;;
16391;SDS011;8305;-33.882;151.134;2023-01-01T09:27:11;8.05;;;1.85;;
16391;SDS011;8305;-33.882;151.134;2023-01-01T09:29:42;9.82;;;2.15;;
16391;SDS011;8305;-33.882;151.134;2023-01-01T09:32:13;9.60;;;2.15;;
16391;SDS011;8305;-33.882;151.134;2023-01-01T09:34:44;14.13;;;2.28;;
16391;SDS011;8305;-33.882;151.134;2023-01-01T09:37:17;7.80;;;1.92;;
16391;SDS011;8305;-33.882;151.134;2023-01-01T09:39:48;6.53;;;1.65;;
16391;SDS011;8305;-33.882;151.134;2023-01-01T09:42:22;7.75;;;1.77;;
16391;SDS011;8305;-33.882;151.134;2023-01-01T09:47:51;6.60;;;1.80;;
16391;SDS011;8305;-33.882;151.134;2023-01-01T09:50:26;7.75;;;2.30;;
16391;SDS011;8305;-33.882;151.134;2023-01-01T09:53:04;11.82;;;2.30;;
16391;SDS011;8305;-33.882;151.134;2023-01-01T09:55:42;11.77;;;2.10;;
16391;SDS011;8305;-33.882;151.134;2023-01-01T09:58:16;11.38;;;2.40;;
16391;SDS011;8305;-33.882;151.134;2023-01-01T10:00:51;8.23;;;1.90;;
16391;SDS011;8305;-33.882;151.134;2023-01-01T10:03:33;6.13;;;1.80;;
16391;SDS011;8305;-33.882;151.134;2023-01-01T10:06:12;11.60;;;1.80;;
16391;SDS011;8305;-33.882;151.134;2023-01-01T10:08:55;5.45;;;1.63;;
16391;SDS011;8305;-33.882;151.134;2023-01-01T10:11:37;8.38;;;1.92;;
16391;SDS011;8305;-33.882;151.134;2023-01-01T10:14:16;7.43;;;1.80;;
16391;SDS011;8305;-33.882;151.134;2023-01-01T10:16:51;11.98;;;2.00;;
16391;SDS011;8305;-33.882;151.134;2023-01-01T10:19:25;7.05;;;1.80;;
16391;SDS011;8305;-33.882;151.134;2023-01-01T10:22:01;11.10;;;2.10;;
16391;SDS011;8305;-33.882;151.134;2023-01-01T10:24:42;9.57;;;1.90;;
16391;SDS011;8305;-33.882;151.134;2023-01-01T10:27:24;10.55;;;2.47;;
16391;SDS011;8305;-33.882;151.134;2023-01-01T10:30:01;7.85;;;1.83;;
16391;SDS011;8305;-33.882;151.134;2023-01-01T10:32:40;7.07;;;2.03;;
16391;SDS011;8305;-33.882;151.134;2023-01-01T10:35:12;10.15;;;1.65;;
16391;SDS011;8305;-33.882;151.134;2023-01-01T10:37:44;10.55;;;1.88;;
16391;SDS011;8305;-33.882;151.134;2023-01-01T10:40:17;7.82;;;1.80;;
16391;SDS011;8305;-33.882;151.134;2023-01-01T10:42:49;7.72;;;2.10;;
16391;SDS011;8305;-33.882;151.134;2023-01-01T10:45:27;16.13;;;2.00;;
16391;SDS011;8305;-33.882;151.134;2023-01-01T10:48:10;8.63;;;1.98;;
16391;SDS011;8305;-33.882;151.134;2023-01-01T10:50:49;10.40;;;1.60;;
16391;SDS011;8305;-33.882;151.134;2023-01-01T10:53:24;5.05;;;1.55;;
16391;SDS011;8305;-33.882;151.134;2023-01-01T10:56:06;8.02;;;1.60;;
16391;SDS011;8305;-33.882;151.134;2023-01-01T10:58:42;8.88;;;1.63;;
16391;SDS011;8305;-33.882;151.134;2023-01-01T11:01:18;9.73;;;2.05;;
16391;SDS011;8305;-33.882;151.134;2023-01-01T11:03:55;8.77;;;1.80;;
16391;SDS011;8305;-33.882;151.134;2023-01-01T11:06:27;11.45;;;2.00;;
16391;SDS011;8305;-33.882;151.134;2023-01-01T11:09:02;5.85;;;1.63;;
16391;SDS011;8305;-33.882;151.134;2023-01-01T11:11:47;11.23;;;2.10;;
16391;SDS011;8305;-33.882;151.134;2023-01-01T11:14:24;9.15;;;1.98;;
16391;SDS011;8305;-33.882;151.134;2023-01-01T11:16:57;9.23;;;2.08;;
16391;SDS011;8305;-33.882;151.134;2023-01-01T11:19:29;9.85;;;1.90;;
16391;SDS011;8305;-33.882;151.134;2023-01-01T11:22:02;9.60;;;1.85;;
16391;SDS011;8305;-33.882;151.134;2023-01-01T11:24:38;8.23;;;2.00;;
16391;SDS011;8305;-33.882;151.134;2023-01-01T11:27:16;11.50;;;1.95;;
16391;SDS011;8305;-33.882;151.134;2023-01-01T11:29:49;6.60;;;1.75;;
16391;SDS011;8305;-33.882;151.134;2023-01-01T11:32:40;13.05;;;1.92;;
16391;SDS011;8305;-33.882;151.134;2023-01-01T11:35:14;9.82;;;2.08;;
16391;SDS011;8305;-33.882;151.134;2023-01-01T11:37:48;7.28;;;1.77;;
16391;SDS011;8305;-33.882;151.134;2023-01-01T11:40:20;7.35;;;1.95;;
16391;SDS011;8305;-33.882;151.134;2023-01-01T11:42:55;9.52;;;1.90;;
16391;SDS011;8305;-33.882;151.134;2023-01-01T11:45:27;9.30;;;1.88;;
16391;SDS011;8305;-33.882;151.134;2023-01-01T11:48:02;7.95;;;2.03;;
16391;SDS011;8305;-33.882;151.134;2023-01-01T11:50:39;7.10;;;1.70;;
16391;SDS011;8305;-33.882;151.134;2023-01-01T11:53:17;15.05;;;2.78;;
16391;SDS011;8305;-33.882;151.134;2023-01-01T11:55:57;8.77;;;1.77;;
16391;SDS011;8305;-33.882;151.134;2023-01-01T11:58:38;8.80;;;1.73;;
16391;SDS011;8305;-33.882;151.134;2023-01-01T12:01:18;6.43;;;1.83;;
16391;SDS011;8305;-33.882;151.134;2023-01-01T12:03:54;7.25;;;1.83;;
16391;SDS011;8305;-33.882;151.134;2023-01-01T12:06:29;9.57;;;1.80;;
16391;SDS011;8305;-33.882;151.134;2023-01-01T12:09:06;11.07;;;2.42;;
16391;SDS011;8305;-33.882;151.134;2023-01-01T12:11:42;9.90;;;1.90;;
16391;SDS011;8305;-33.882;151.134;2023-01-01T12:14:18;8.25;;;1.92;;
16391;SDS011;8305;-33.882;151.134;2023-01-01T12:16:54;9.30;;;1.73;;
16391;SDS011;8305;-33.882;151.134;2023-01-01T12:19:28;7.20;;;1.67;;
16391;SDS011;8305;-33.882;151.134;2023-01-01T12:22:04;6.82;;;1.60;;
16391;SDS011;8305;-33.882;151.134;2023-01-01T12:24:42;6.53;;;1.67;;
16391;SDS011;8305;-33.882;151.134;2023-01-01T12:27:16;8.88;;;1.75;;
16391;SDS011;8305;-33.882;151.134;2023-01-01T12:29:58;8.80;;;1.60;;
16391;SDS011;8305;-33.882;151.134;2023-01-01T12:32:57;11.38;;;2.00;;
16391;SDS011;8305;-33.882;151.134;2023-01-01T12:35:52;8.98;;;1.77;;
16391;SDS011;8305;-33.882;151.134;2023-01-01T12:38:46;7.68;;;1.70;;
16391;SDS011;8305;-33.882;151.134;2023-01-01T12:41:45;7.28;;;1.80;;
16391;SDS011;8305;-33.882;151.134;2023-01-01T12:44:26;7.32;;;1.67;;
16391;SDS011;8305;-33.882;151.134;2023-01-01T12:47:10;7.85;;;1.65;;
16391;SDS011;8305;-33.882;151.134;2023-01-01T12:50:00;6.57;;;1.40;;
16391;SDS011;8305;-33.882;151.134;2023-01-01T12:52:45;7.82;;;1.75;;
16391;SDS011;8305;-33.882;151.134;2023-01-01T12:55:36;8.35;;;1.98;;
16391;SDS011;8305;-33.882;151.134;2023-01-01T12:58:23;8.43;;;1.83;;
16391;SDS011;8305;-33.882;151.134;2023-01-01T13:00:59;9.93;;;1.70;;
16391;SDS011;8305;-33.882;151.134;2023-01-01T13:03:40;6.80;;;1.58;;
16391;SDS011;8305;-33.882;151.134;2023-01-01T13:06:17;5.25;;;1.50;;
16391;SDS011;8305;-33.882;151.134;2023-01-01T13:08:50;9.02;;;1.77;;
16391;SDS011;8305;-33.882;151.134;2023-01-01T13:11:24;6.10;;;1.80;;
16391;SDS011;8305;-33.882;151.134;2023-01-01T13:13:56;5.05;;;1.42;;
16391;SDS011;8305;-33.882;151.134;2023-01-01T13:16:33;9.02;;;1.80;;
16391;SDS011;8305;-33.882;151.134;2023-01-01T13:19:20;6.28;;;1.60;;
16391;SDS011;8305;-33.882;151.134;2023-01-01T13:22:00;6.60;;;1.65;;
16391;SDS011;8305;-33.882;151.134;2023-01-01T13:25:18;4.82;;;1.52;;
16391;SDS011;8305;-33.882;151.134;2023-01-01T13:28:03;8.32;;;1.70;;
16391;SDS011;8305;-33.882;151.134;2023-01-01T13:30:48;5.25;;;1.40;;
16391;SDS011;8305;-33.882;151.134;2023-01-01T13:33:21;5.88;;;1.48;;
16391;SDS011;8305;-33.882;151.134;2023-01-01T13:39:02;5.47;;;1.50;;
16391;SDS011;8305;-33.882;151.134;2023-01-01T13:41:38;10.18;;;1.70;;
16391;SDS011;8305;-33.882;151.134;2023-01-01T13:44:21;6.53;;;1.58;;
16391;SDS011;8305;-33.882;151.134;2023-01-01T13:46:59;7.20;;;1.52;;
16391;SDS011;8305;-33.882;151.134;2023-01-01T13:49:45;7.55;;;1.60;;
16391;SDS011;8305;-33.882;151.134;2023-01-01T13:52:39;7.32;;;1.70;;
16391;SDS011;8305;-33.882;151.134;2023-01-01T13:58:42;6.15;;;1.48;;
16391;SDS011;8305;-33.882;151.134;2023-01-01T14:01:40;5.88;;;1.52;;
16391;SDS011;8305;-33.882;151.134;2023-01-01T14:04:21;5.72;;;1.42;;
16391;SDS011;8305;-33.882;151.134;2023-01-01T14:06:58;5.82;;;1.40;;
16391;SDS011;8305;-33.882;151.134;2023-01-01T14:09:32;5.18;;;1.58;;
16391;SDS011;8305;-33.882;151.134;2023-01-01T14:12:09;5.20;;;1.50;;
16391;SDS011;8305;-33.882;151.134;2023-01-01T14:14:45;4.63;;;1.40;;
16391;SDS011;8305;-33.882;151.134;2023-01-01T14:17:16;6.45;;;1.75;;
16391;SDS011;8305;-33.882;151.134;2023-01-01T14:19:47;9.40;;;1.55;;
16391;SDS011;8305;-33.882;151.134;2023-01-01T14:22:20;6.22;;;1.52;;
16391;SDS011;8305;-33.882;151.134;2023-01-01T14:24:51;7.88;;;1.38;;
16391;SDS011;8305;-33.882;151.134;2023-01-01T14:27:24;8.30;;;1.63;;
16391;SDS011;8305;-33.882;151.134;2023-01-01T14:29:57;9.38;;;2.00;;
16391;SDS011;8305;-33.882;151.134;2023-01-01T14:32:28;5.85;;;1.60;;
16391;SDS011;8305;-33.882;151.134;2023-01-01T14:34:59;8.60;;;1.83;;
16391;SDS011;8305;-33.882;151.134;2023-01-01T14:37:30;8.13;;;1.40;;
16391;SDS011;8305;-33.882;151.134;2023-01-01T14:40:08;10.27;;;1.85;;
16391;SDS011;8305;-33.882;151.134;2023-01-01T14:42:55;8.57;;;1.60;;
16391;SDS011;8305;-33.882;151.134;2023-01-01T14:45:29;6.55;;;1.50;;
16391;SDS011;8305;-33.882;151.134;2023-01-01T14:48:04;6.82;;;1.60;;
16391;SDS011;8305;-33.882;151.134;2023-01-01T14:50:40;5.75;;;1.30;;
16391;SDS011;8305;-33.882;151.134;2023-01-01T14:53:15;5.85;;;1.42;;
16391;SDS011;8305;-33.882;151.134;2023-01-01T14:55:48;7.22;;;1.65;;
16391;SDS011;8305;-33.882;151.134;2023-01-01T14:58:22;10.52;;;2.30;;
16391;SDS011;8305;-33.882;151.134;2023-01-01T15:00:54;5.10;;;1.40;;
16391;SDS011;8305;-33.882;151.134;2023-01-01T15:03:54;4.93;;;1.45;;
16391;SDS011;8305;-33.882;151.134;2023-01-01T15:06:26;3.47;;;1.23;;
16391;SDS011;8305;-33.882;151.134;2023-01-01T15:08:57;4.85;;;1.50;;
16391;SDS011;8305;-33.882;151.134;2023-01-01T15:11:28;6.95;;;1.83;;